Cisco, California
Current Conditions -  °F | °C
As of 4:52 AM on Thursday 23 Oct 2014 (Local Time) from KBLU Reporting Station
Clear Clear  
Wind Chill: 52°   Ceiling: Unl
Heat Index: 52°   Visibility: 10mi
Dew Point: 29°   Wind: 7mph
Humidity: 41%   Direction: 170°S
Pressure: 30.15"   Gusts: NA
Location:  39.4261°N, 120.475°W
Report Text: KBLU 231152Z AUTO 17006KT 10SM CLR 11/M02 A3015 RMK AO2 SLP159 T01111017 10117 20100 55002 $
Loading
Personal Weather Stations






























Interactive Weather Map
Tropical Storm Tracking
New forecast layout! Learn more

10-Day Weather Forecast

Advertisements
Track Severe Weather on mobile